Time;durP1;ratioP1;P1;durP2;ratioP2;P2;SDS_P1;SDS_P2;PMS_P1;PMS_P2;Temp;Humidity;BMP_temperature;BMP_pressure;BME280_temperature;BME280_humidity;BME280_pressure;Samples;Min_cycle;Max_cycle;Signal;HPM_P1;HPM_P2
2022/03/27 00:01:28;;;;;;;6.50;5.60;;;6.60;81.70;;;;;;5036498;28;20179;-69
2022/03/27 00:03:53;;;;;;;7.90;6.67;;;6.50;82.20;;;;;;5035658;28;20667;-69
2022/03/27 00:06:19;;;;;;;11.03;6.90;;;6.50;82.50;;;;;;5028035;28;20198;-69
2022/03/27 00:08:44;;;;;;;8.93;6.37;;;6.50;82.90;;;;;;5016439;28;20170;-68
2022/03/27 00:11:26;;;;;;;7.23;5.80;;;6.50;83.00;;;;;;5017945;28;20178;-69
2022/03/27 00:13:58;;;;;;;6.93;6.03;;;6.50;83.40;;;;;;5035777;28;20162;-68
2022/03/27 00:16:23;;;;;;;7.82;6.30;;;6.50;84.10;;;;;;5035617;28;20205;-69
2022/03/27 00:18:50;;;;;;;11.37;7.73;;;6.40;84.20;;;;;;5035790;28;20526;-70
2022/03/27 00:21:16;;;;;;;6.97;5.68;;;6.40;84.90;;;;;;5035807;28;20174;-68
2022/03/27 00:23:43;;;;;;;9.73;4.90;;;6.40;85.40;;;;;;5035519;28;20170;-69
2022/03/27 00:26:09;;;;;;;14.00;6.43;;;6.40;85.90;;;;;;5027889;28;20441;-68
2022/03/27 00:28:35;;;;;;;7.05;5.88;;;6.40;86.20;;;;;;5016133;28;20620;-68
2022/03/27 00:31:05;;;;;;;10.75;7.30;;;6.40;86.70;;;;;;5015932;28;20184;-68
2022/03/27 00:33:32;;;;;;;9.32;7.10;;;6.30;87.00;;;;;;5015677;28;20189;-68
2022/03/27 00:36:03;;;;;;;8.77;6.32;;;6.30;87.10;;;;;;5014304;28;20776;-68
2022/03/27 00:38:30;;;;;;;12.85;6.70;;;6.30;87.50;;;;;;5015801;28;20165;-70
2022/03/27 00:40:56;;;;;;;12.15;7.13;;;6.20;88.20;;;;;;5023831;28;20181;-70
2022/03/27 00:43:23;;;;;;;6.70;5.90;;;6.20;88.80;;;;;;5035138;28;20174;-71
2022/03/27 00:45:50;;;;;;;6.60;6.00;;;6.10;89.80;;;;;;5035226;28;20286;-70
2022/03/27 00:48:20;;;;;;;12.07;6.97;;;6.10;90.00;;;;;;5035315;28;20178;-70
2022/03/27 00:50:50;;;;;;;10.15;7.70;;;6.10;90.40;;;;;;5015575;28;20266;-68
2022/03/27 00:53:17;;;;;;;7.85;6.05;;;6.10;90.80;;;;;;5015221;28;20568;-69
2022/03/27 00:55:46;;;;;;;11.80;7.40;;;6.10;91.00;;;;;;5015308;28;20220;-68
2022/03/27 00:58:13;;;;;;;9.52;5.85;;;6.10;91.10;;;;;;5015524;28;20172;-69
2022/03/27 01:00:39;;;;;;;13.23;6.53;;;6.10;91.10;;;;;;5015749;28;20163;-69
2022/03/27 01:03:20;;;;;;;11.00;5.80;;;6.10;91.30;;;;;;5014765;28;20269;-72
2022/03/27 01:05:48;;;;;;;6.72;6.03;;;6.00;91.60;;;;;;5015286;28;20193;-69
2022/03/27 01:08:14;;;;;;;11.70;6.38;;;6.00;91.70;;;;;;5015310;28;20247;-69
2022/03/27 01:10:42;;;;;;;8.50;5.50;;;6.00;91.70;;;;;;5015128;28;20167;-69
2022/03/27 01:13:18;;;;;;;9.23;5.28;;;6.00;92.00;;;;;;5014694;28;20198;-68
2022/03/27 01:15:53;;;;;;;10.18;6.13;;;5.90;92.20;;;;;;5016279;28;20190;-69
2022/03/27 01:18:20;;;;;;;8.88;6.40;;;5.90;92.20;;;;;;5015057;28;20600;-69
2022/03/27 01:20:46;;;;;;;12.23;7.00;;;5.90;92.30;;;;;;5014877;28;20175;-70
2022/03/27 01:23:13;;;;;;;13.23;4.95;;;5.80;92.60;;;;;;5014558;28;20171;-70
2022/03/27 01:25:42;;;;;;;11.57;5.32;;;5.70;93.00;;;;;;5014797;28;20194;-69
2022/03/27 01:28:12;;;;;;;9.35;5.15;;;5.70;93.10;;;;;;5014020;28;20181;-69
2022/03/27 01:30:39;;;;;;;13.35;6.72;;;5.70;93.40;;;;;;5019246;28;20637;-69
2022/03/27 01:33:05;;;;;;;6.70;5.68;;;5.60;93.60;;;;;;5034184;28;20182;-70
2022/03/27 01:35:32;;;;;;;9.15;6.78;;;5.60;93.70;;;;;;5034153;28;20205;-69
2022/03/27 01:37:58;;;;;;;11.23;6.32;;;5.50;93.90;;;;;;5032507;28;20700;-67
2022/03/27 01:40:24;;;;;;;7.27;5.80;;;5.50;94.20;;;;;;5034489;28;20281;-69
2022/03/27 01:42:53;;;;;;;6.30;5.53;;;5.50;94.30;;;;;;5034199;28;20633;-69
2022/03/27 01:45:19;;;;;;;11.77;7.10;;;5.40;94.40;;;;;;5028967;28;20519;-69
2022/03/27 01:47:44;;;;;;;8.43;6.10;;;5.40;94.50;;;;;;5014481;28;20230;-69
2022/03/27 01:50:10;;;;;;;10.07;5.57;;;5.30;94.90;;;;;;5013454;28;20413;-69
2022/03/27 01:52:36;;;;;;;7.73;6.07;;;5.30;95.20;;;;;;5014976;28;20405;-69
2022/03/27 01:55:05;;;;;;;8.67;7.53;;;5.30;95.30;;;;;;5030069;28;20460;-68
2022/03/27 01:57:31;;;;;;;9.23;4.97;;;5.20;95.40;;;;;;5034084;28;20292;-69
2022/03/27 01:59:56;;;;;;;6.60;5.77;;;5.20;95.60;;;;;;5034182;28;20671;-69
2022/03/27 02:02:25;;;;;;;10.63;7.57;;;5.20;95.70;;;;;;5033907;28;20212;-70
2022/03/27 02:04:51;;;;;;;5.60;4.70;;;5.10;96.00;;;;;;5033341;28;20225;-69
2022/03/27 02:07:18;;;;;;;6.85;5.00;;;5.10;96.20;;;;;;5034116;28;20545;-70
2022/03/27 02:09:45;;;;;;;12.18;6.70;;;5.10;96.20;;;;;;5016805;28;20581;-68
2022/03/27 02:12:10;;;;;;;8.13;6.05;;;5.00;96.50;;;;;;5014311;28;20171;-70
2022/03/27 02:14:36;;;;;;;9.13;6.20;;;5.00;96.70;;;;;;5013513;28;20248;-69
2022/03/27 02:17:02;;;;;;;11.27;5.60;;;5.00;96.80;;;;;;5013942;28;20248;-70
2022/03/27 02:19:27;;;;;;;7.53;5.13;;;4.90;96.90;;;;;;5012810;28;20503;-68
2022/03/27 02:21:54;;;;;;;11.57;6.43;;;4.90;97.30;;;;;;5013967;28;20617;-70
2022/03/27 02:24:20;;;;;;;10.80;6.80;;;4.80;97.90;;;;;;5029013;28;20189;-69
2022/03/27 02:26:47;;;;;;;7.43;5.67;;;4.80;98.30;;;;;;5033656;28;20177;-71
2022/03/27 02:29:14;;;;;;;8.15;5.20;;;4.70;98.80;;;;;;5033725;28;20425;-70
2022/03/27 02:31:40;;;;;;;13.35;4.90;;;4.80;99.30;;;;;;5033689;28;20520;-68
2022/03/27 02:34:06;;;;;;;6.03;5.43;;;4.70;99.50;;;;;;5033173;28;20265;-69
2022/03/27 02:36:31;;;;;;;13.40;7.33;;;4.70;99.60;;;;;;5033287;28;20471;-71
2022/03/27 02:38:57;;;;;;;7.77;5.70;;;4.70;99.70;;;;;;5017676;28;20202;-68
2022/03/27 02:41:23;;;;;;;13.07;6.37;;;4.70;99.90;;;;;;5013731;28;20171;-71
2022/03/27 02:43:48;;;;;;;10.73;5.33;;;4.60;99.90;;;;;;5013435;28;20210;-71
2022/03/27 02:46:14;;;;;;;11.33;7.20;;;4.70;99.90;;;;;;5013518;28;20199;-69
2022/03/27 02:48:40;;;;;;;10.43;6.83;;;4.60;99.90;;;;;;5013804;28;20174;-69
2022/03/27 02:51:05;;;;;;;7.90;6.70;;;4.50;99.90;;;;;;5013725;28;20175;-68
2022/03/27 02:53:31;;;;;;;10.97;7.23;;;4.50;99.90;;;;;;5027007;28;20252;-68
2022/03/27 02:55:57;;;;;;;8.53;7.27;;;4.40;99.90;;;;;;5033269;28;20738;-68
2022/03/27 02:58:22;;;;;;;9.77;6.50;;;4.50;99.90;;;;;;5033301;28;20173;-69
2022/03/27 03:00:48;;;;;;;6.80;5.93;;;4.40;99.90;;;;;;5031481;28;20173;-68
2022/03/27 03:03:14;;;;;;;8.52;5.15;;;4.30;99.90;;;;;;5032679;28;20530;-69
2022/03/27 03:05:41;;;;;;;7.77;6.93;;;4.30;99.90;;;;;;5033334;28;20201;-68
2022/03/27 03:08:11;;;;;;;10.52;6.45;;;4.30;99.90;;;;;;5033307;28;20413;-69
2022/03/27 03:10:40;;;;;;;11.55;6.60;;;4.20;99.90;;;;;;5033252;28;20167;-69
2022/03/27 03:13:10;;;;;;;9.70;6.60;;;4.20;99.90;;;;;;5032931;28;20182;-68
2022/03/27 03:15:37;;;;;;;9.40;6.63;;;4.20;99.90;;;;;;5027691;28;20597;-69
2022/03/27 03:18:04;;;;;;;7.05;5.55;;;4.20;99.90;;;;;;5013432;28;20561;-69
2022/03/27 03:20:30;;;;;;;7.28;5.90;;;4.10;99.90;;;;;;5013536;28;20178;-69
2022/03/27 03:22:55;;;;;;;7.32;5.97;;;4.10;99.90;;;;;;5028656;28;20174;-68
2022/03/27 03:25:23;;;;;;;6.80;4.57;;;4.10;99.90;;;;;;5032738;28;20332;-68
2022/03/27 03:27:48;;;;;;;7.15;6.38;;;4.10;99.90;;;;;;5033055;28;20405;-69
2022/03/27 03:30:16;;;;;;;13.93;6.07;;;4.10;99.90;;;;;;5032994;28;20185;-69
2022/03/27 03:32:42;;;;;;;9.07;6.53;;;4.00;99.90;;;;;;5032868;28;20180;-68
2022/03/27 03:35:09;;;;;;;5.50;4.65;;;4.00;99.90;;;;;;5031798;28;20185;-69
2022/03/27 03:37:35;;;;;;;6.65;6.07;;;4.00;99.90;;;;;;5013608;28;20234;-68
2022/03/27 03:40:02;;;;;;;12.10;5.13;;;4.00;99.90;;;;;;5013213;28;20499;-68
2022/03/27 03:42:28;;;;;;;6.95;6.32;;;3.90;99.90;;;;;;5012985;28;20171;-68
2022/03/27 03:44:54;;;;;;;18.33;8.47;;;3.90;99.90;;;;;;5012585;28;20201;-68
2022/03/27 03:47:20;;;;;;;13.63;8.03;;;3.90;99.90;;;;;;5013091;28;20202;-69
2022/03/27 03:49:46;;;;;;;7.07;5.67;;;3.90;99.90;;;;;;5013082;28;20409;-69
2022/03/27 03:52:11;;;;;;;10.03;6.80;;;3.90;99.90;;;;;;5022568;28;20179;-68
2022/03/27 03:54:37;;;;;;;8.13;6.10;;;3.90;99.90;;;;;;5016123;28;20465;-69
2022/03/27 03:57:05;;;;;;;7.80;7.00;;;3.90;99.90;;;;;;5016599;28;20543;-68
2022/03/27 03:59:33;;;;;;;10.60;6.25;;;3.90;99.90;;;;;;5016340;28;20417;-68
2022/03/27 04:01:59;;;;;;;7.22;6.10;;;3.90;99.90;;;;;;5016394;28;20262;-69
2022/03/27 04:04:25;;;;;;;6.05;4.78;;;3.90;99.90;;;;;;5015880;28;20186;-69
2022/03/27 04:06:51;;;;;;;8.15;5.05;;;3.90;99.90;;;;;;5034769;28;20182;-69
2022/03/27 04:09:17;;;;;;;10.70;7.60;;;3.90;99.90;;;;;;5036427;28;20197;-69
2022/03/27 04:11:45;;;;;;;7.00;5.88;;;4.00;99.90;;;;;;5035842;28;20444;-68
2022/03/27 04:14:11;;;;;;;20.70;6.80;;;3.90;99.90;;;;;;5034365;28;20261;-68
2022/03/27 04:16:36;;;;;;;7.00;6.43;;;3.90;99.90;;;;;;5034306;28;20293;-68
2022/03/27 04:19:02;;;;;;;13.10;8.67;;;3.90;99.90;;;;;;5034482;28;20556;-68
2022/03/27 04:21:28;;;;;;;12.57;6.60;;;3.80;99.90;;;;;;5034108;28;20174;-68
2022/03/27 04:23:53;;;;;;;9.60;5.13;;;3.80;99.90;;;;;;5035514;28;20548;-69
2022/03/27 04:26:19;;;;;;;8.20;5.47;;;3.80;99.90;;;;;;5035850;28;20194;-68
2022/03/27 04:28:45;;;;;;;8.13;5.40;;;3.70;99.90;;;;;;5035899;28;20232;-69
2022/03/27 04:31:11;;;;;;;10.33;4.80;;;3.70;99.90;;;;;;5035863;28;20170;-69
2022/03/27 04:33:36;;;;;;;13.93;6.57;;;3.70;99.90;;;;;;5035383;28;20655;-69
2022/03/27 04:36:05;;;;;;;9.13;5.87;;;3.70;99.90;;;;;;5031826;28;20963;-68
2022/03/27 04:38:31;;;;;;;6.18;5.22;;;3.60;99.90;;;;;;5035563;28;20170;-68
2022/03/27 04:40:57;;;;;;;7.97;5.82;;;3.60;99.90;;;;;;5017924;28;20175;-69
2022/03/27 04:43:23;;;;;;;9.47;6.13;;;3.60;99.90;;;;;;5015824;28;20246;-69
2022/03/27 04:45:49;;;;;;;9.60;5.57;;;3.50;99.90;;;;;;5014365;28;20457;-69
2022/03/27 04:48:15;;;;;;;7.20;5.20;;;3.50;99.90;;;;;;5015583;28;20493;-68
2022/03/27 04:50:41;;;;;;;8.80;5.27;;;3.40;99.90;;;;;;5019210;28;20252;-68
2022/03/27 04:53:07;;;;;;;6.90;6.00;;;3.40;99.90;;;;;;5034967;28;20262;-69
2022/03/27 04:55:33;;;;;;;8.33;6.50;;;3.40;99.90;;;;;;5035119;28;20186;-68
2022/03/27 04:57:59;;;;;;;13.10;8.93;;;3.30;99.90;;;;;;5035104;28;20241;-68
2022/03/27 05:00:25;;;;;;;10.25;8.10;;;3.40;99.90;;;;;;5034977;28;20405;-69
2022/03/27 05:02:51;;;;;;;5.00;4.57;;;3.30;99.90;;;;;;5033916;28;20232;-69
2022/03/27 05:05:17;;;;;;;11.57;6.00;;;3.20;99.90;;;;;;5031920;28;20444;-68
2022/03/27 05:07:44;;;;;;;9.60;6.13;;;3.30;99.90;;;;;;5015088;28;20258;-67
2022/03/27 05:10:11;;;;;;;6.07;4.72;;;3.20;99.90;;;;;;5015269;28;20464;-68
2022/03/27 05:12:37;;;;;;;11.65;5.13;;;3.20;99.90;;;;;;5015096;28;20178;-69
2022/03/27 05:15:04;;;;;;;10.32;6.40;;;3.20;99.90;;;;;;5014691;28;20194;-69
2022/03/27 05:17:30;;;;;;;7.32;4.70;;;3.20;99.90;;;;;;5015023;28;20209;-69
2022/03/27 05:19:55;;;;;;;5.67;4.73;;;3.20;99.90;;;;;;5047715;28;20705;-68
2022/03/27 05:22:21;;;;;;;14.90;5.53;;;3.20;99.90;;;;;;5033132;28;20511;-68
2022/03/27 05:24:47;;;;;;;7.47;5.63;;;3.20;99.90;;;;;;5034095;28;20227;-68
2022/03/27 05:27:16;;;;;;;12.00;6.60;;;3.30;99.90;;;;;;5034526;28;20204;-68
2022/03/27 05:29:41;;;;;;;7.30;5.95;;;3.20;99.90;;;;;;5034492;28;20470;-68
2022/03/27 05:32:08;;;;;;;9.00;6.00;;;3.30;99.90;;;;;;5034515;28;20257;-69
2022/03/27 05:34:34;;;;;;;10.00;5.63;;;3.50;99.90;;;;;;5033226;28;20261;-68
2022/03/27 05:36:59;;;;;;;8.23;6.90;;;3.60;99.90;;;;;;5014592;28;20207;-69
2022/03/27 05:39:25;;;;;;;8.40;5.30;;;3.80;99.90;;;;;;5014716;28;20410;-69
2022/03/27 05:41:51;;;;;;;14.37;8.40;;;4.00;99.90;;;;;;5014753;28;20645;-68
2022/03/27 05:44:16;;;;;;;8.67;6.23;;;4.10;99.90;;;;;;5014233;28;20179;-69
2022/03/27 05:46:45;;;;;;;10.17;6.20;;;4.30;99.90;;;;;;5014501;28;20175;-69
2022/03/27 05:49:11;;;;;;;9.95;6.55;;;4.30;99.90;;;;;;5013263;28;20198;-73
2022/03/27 05:51:36;;;;;;;9.13;6.30;;;4.40;99.90;;;;;;5033901;28;20635;-69
2022/03/27 05:54:02;;;;;;;13.37;6.30;;;4.50;99.90;;;;;;5033711;28;20232;-68
2022/03/27 05:56:28;;;;;;;11.13;6.97;;;4.70;99.90;;;;;;5033898;28;20205;-69
2022/03/27 05:58:54;;;;;;;6.23;5.47;;;5.00;99.90;;;;;;5034049;28;20193;-69
2022/03/27 06:01:19;;;;;;;14.23;6.00;;;5.40;99.90;;;;;;5034034;28;20417;-69
2022/03/27 06:03:45;;;;;;;11.10;7.20;;;5.80;99.90;;;;;;5033445;28;20182;-68
2022/03/27 06:06:10;;;;;;;6.83;6.13;;;6.10;99.90;;;;;;5022979;28;20284;-68
2022/03/27 06:08:36;;;;;;;8.50;6.90;;;6.30;99.90;;;;;;5034002;28;20222;-68
2022/03/27 06:11:02;;;;;;;11.30;6.30;;;6.50;99.90;;;;;;5033864;28;20174;-68
2022/03/27 06:13:27;;;;;;;10.37;6.50;;;6.70;99.60;;;;;;5033200;28;20176;-69
2022/03/27 06:15:54;;;;;;;12.60;5.70;;;6.90;99.50;;;;;;5033704;28;20200;-69
2022/03/27 06:18:20;;;;;;;14.18;6.43;;;7.10;98.70;;;;;;5032560;28;20267;-68
2022/03/27 06:20:46;;;;;;;8.43;5.87;;;7.20;97.30;;;;;;5015657;28;20265;-68
2022/03/27 06:23:13;;;;;;;8.27;6.37;;;7.20;97.60;;;;;;5013513;28;20163;-68
2022/03/27 06:25:38;;;;;;;8.00;6.50;;;7.30;97.10;;;;;;5013787;28;20182;-69
2022/03/27 06:28:04;;;;;;;11.77;6.70;;;7.30;97.10;;;;;;5012552;28;20236;-68
2022/03/27 06:30:32;;;;;;;7.60;6.13;;;7.50;97.20;;;;;;5013850;28;20174;-68
2022/03/27 06:32:59;;;;;;;9.30;6.35;;;7.70;96.90;;;;;;5013622;28;20177;-68
2022/03/27 06:35:25;;;;;;;10.85;7.45;;;8.00;96.20;;;;;;5030286;28;20197;-68
2022/03/27 06:37:52;;;;;;;9.27;5.60;;;8.40;95.30;;;;;;5033408;28;20671;-68
2022/03/27 06:40:20;;;;;;;12.70;5.35;;;8.80;95.00;;;;;;5033388;28;20617;-68
2022/03/27 06:42:46;;;;;;;14.40;6.60;;;9.30;94.00;;;;;;5029686;28;20172;-68
2022/03/27 06:45:13;;;;;;;10.82;5.93;;;9.70;92.70;;;;;;5033129;28;20186;-70
2022/03/27 06:47:40;;;;;;;13.15;8.70;;;10.00;91.00;;;;;;5033579;28;20536;-69
2022/03/27 06:50:07;;;;;;;11.18;7.80;;;10.30;90.10;;;;;;5032105;28;20178;-70
2022/03/27 06:52:34;;;;;;;10.02;7.65;;;10.50;89.70;;;;;;5033308;28;20226;-68
2022/03/27 06:55:00;;;;;;;11.80;8.00;;;10.70;89.00;;;;;;5032574;28;20182;-69
2022/03/27 06:57:25;;;;;;;9.20;7.93;;;11.00;88.30;;;;;;5024832;28;20486;-69
2022/03/27 07:05:22;;;;;;;8.07;6.03;;;12.40;83.10;;;;;;5013061;28;20496;-68
2022/03/27 07:07:48;;;;;;;11.30;7.37;;;12.70;80.90;;;;;;5011871;28;20471;-70
2022/03/27 07:10:14;;;;;;;11.33;8.03;;;12.80;80.00;;;;;;5013526;28;20761;-68
2022/03/27 07:12:42;;;;;;;10.97;7.20;;;12.80;78.30;;;;;;5026267;28;20448;-68
2022/03/27 07:15:08;;;;;;;8.07;7.27;;;13.10;79.20;;;;;;5032394;28;20425;-69
2022/03/27 07:17:43;;;;;;;9.33;7.37;;;13.40;76.10;;;;;;5033028;28;20449;-68
2022/03/27 07:20:10;;;;;;;11.20;7.30;;;14.00;76.10;;;;;;5033041;28;20456;-69
2022/03/27 07:22:35;;;;;;;9.87;7.67;;;14.30;73.60;;;;;;5032888;28;20497;-68
2022/03/27 07:25:02;;;;;;;11.07;8.13;;;14.60;72.40;;;;;;5031210;28;20844;-70
2022/03/27 07:27:27;;;;;;;11.47;7.57;;;15.00;71.50;;;;;;5032947;28;20205;-67
2022/03/27 07:29:54;;;;;;;11.40;8.13;;;15.40;69.30;;;;;;5036578;28;20428;-68
2022/03/27 07:32:19;;;;;;;10.13;7.53;;;15.70;69.40;;;;;;5036309;28;20397;-69
2022/03/27 07:34:45;;;;;;;10.50;6.93;;;15.80;67.20;;;;;;5035881;28;20428;-69
2022/03/27 07:37:11;;;;;;;9.70;7.43;;;15.80;67.40;;;;;;5036427;28;20198;-69
2022/03/27 07:39:37;;;;;;;12.10;7.03;;;16.00;66.30;;;;;;5034976;28;20646;-68
2022/03/27 07:42:03;;;;;;;9.10;6.83;;;16.10;67.40;;;;;;5023797;28;20182;-69
2022/03/27 07:44:28;;;;;;;8.80;6.27;;;16.20;66.00;;;;;;5015915;28;20714;-69
2022/03/27 07:46:58;;;;;;;8.87;7.00;;;16.60;64.90;;;;;;5016370;28;20411;-68
2022/03/27 07:49:24;;;;;;;8.90;7.60;;;17.10;63.20;;;;;;5016545;28;20167;-69
2022/03/27 07:51:50;;;;;;;9.33;6.50;;;17.60;61.70;;;;;;5016437;28;20816;-68
2022/03/27 07:54:15;;;;;;;11.57;7.17;;;18.30;60.60;;;;;;5015794;28;20217;-69
2022/03/27 07:56:41;;;;;;;9.33;6.80;;;19.10;59.60;;;;;;5018896;28;20195;-69
2022/03/27 07:59:07;;;;;;;9.20;7.40;;;19.80;58.30;;;;;;5016543;28;20545;-69
2022/03/27 08:01:33;;;;;;;10.63;7.70;;;20.30;57.20;;;;;;5016505;28;20381;-69
2022/03/27 08:03:59;;;;;;;8.50;7.33;;;20.80;56.20;;;;;;5015792;28;20774;-69
2022/03/27 08:06:25;;;;;;;9.67;6.90;;;21.20;55.40;;;;;;5016205;28;20241;-68
2022/03/27 08:08:51;;;;;;;17.53;6.80;;;21.50;54.20;;;;;;5016278;28;20388;-68
2022/03/27 08:11:16;;;;;;;8.53;7.50;;;22.00;54.10;;;;;;5025964;28;20637;-68
2022/03/27 08:13:43;;;;;;;9.13;7.30;;;22.50;52.90;;;;;;5035650;28;20185;-69
2022/03/27 08:16:09;;;;;;;14.50;7.43;;;22.70;52.80;;;;;;5035545;28;20194;-68
2022/03/27 08:18:34;;;;;;;11.50;6.60;;;23.20;51.70;;;;;;5036003;28;20416;-68
2022/03/27 08:21:00;;;;;;;8.70;7.57;;;23.60;50.60;;;;;;5029871;28;20568;-68
2022/03/27 08:23:26;;;;;;;8.20;7.17;;;23.80;50.30;;;;;;5014221;28;20520;-68
2022/03/27 08:28:36;;;;;;;8.00;6.90;;;24.10;48.70;;;;;;5016064;28;20177;-68
2022/03/27 08:31:02;;;;;;;11.20;8.30;;;24.20;48.90;;;;;;5015826;28;20385;-67
2022/03/27 08:33:28;;;;;;;9.30;7.57;;;24.50;48.20;;;;;;5015555;28;20186;-70
2022/03/27 08:35:54;;;;;;;11.00;7.90;;;24.80;47.70;;;;;;5015796;28;20417;-69
2022/03/27 08:38:20;;;;;;;8.77;7.07;;;24.80;48.00;;;;;;5014506;28;20880;-69
2022/03/27 08:40:47;;;;;;;9.80;8.27;;;25.00;47.60;;;;;;5014524;28;20439;-69
2022/03/27 08:43:15;;;;;;;8.50;7.60;;;25.10;47.50;;;;;;5015579;28;20787;-69
2022/03/27 08:45:41;;;;;;;8.87;7.03;;;25.50;47.20;;;;;;5030389;28;20814;-69
2022/03/27 08:48:07;;;;;;;7.23;6.53;;;25.60;46.40;;;;;;5035502;28;20408;-68
2022/03/27 08:50:50;;;;;;;12.87;7.87;;;25.80;46.40;;;;;;5035234;28;20379;-69
2022/03/27 08:53:28;;;;;;;8.17;6.00;;;26.20;45.80;;;;;;5034585;28;20380;-69
2022/03/27 08:56:00;;;;;;;8.33;7.30;;;26.40;45.60;;;;;;5035220;28;20776;-68
2022/03/27 08:58:37;;;;;;;8.33;7.10;;;26.00;45.40;;;;;;5034068;28;20823;-68
2022/03/27 09:01:04;;;;;;;8.73;7.10;;;26.20;45.60;;;;;;5016172;28;20402;-68
2022/03/27 09:03:31;;;;;;;8.47;7.57;;;26.40;45.80;;;;;;5014750;28;20501;-68
2022/03/27 09:05:57;;;;;;;8.80;6.10;;;26.40;45.60;;;;;;5014882;28;20408;-69
2022/03/27 09:08:23;;;;;;;7.80;7.00;;;27.10;45.00;;;;;;5013836;28;20460;-68
2022/03/27 09:10:48;;;;;;;6.77;6.07;;;27.60;43.80;;;;;;5015311;28;20495;-69
2022/03/27 09:13:16;;;;;;;11.40;6.67;;;27.90;43.70;;;;;;5014932;28;20160;-68
2022/03/27 09:15:43;;;;;;;7.90;7.20;;;28.40;43.00;;;;;;5034921;28;20190;-69
2022/03/27 09:18:13;;;;;;;7.90;6.80;;;28.90;42.20;;;;;;5033592;28;20506;-69
2022/03/27 09:20:48;;;;;;;7.43;6.20;;;28.40;42.20;;;;;;5034715;28;20448;-69
2022/03/27 09:23:17;;;;;;;8.50;7.60;;;28.40;42.80;;;;;;5034180;28;20404;-69
2022/03/27 09:25:49;;;;;;;13.27;6.30;;;28.20;42.10;;;;;;5033315;28;20882;-71
2022/03/27 09:28:36;;;;;;;7.27;6.50;;;28.20;42.40;;;;;;5034646;28;20456;-70
2022/03/27 09:31:23;;;;;;;8.00;7.17;;;28.70;42.00;;;;;;5034473;28;20408;-73
2022/03/27 09:33:50;;;;;;;9.00;6.60;;;29.00;42.10;;;;;;5034134;28;20393;-72
2022/03/27 09:36:26;;;;;;;9.97;7.87;;;29.10;41.70;;;;;;5034263;28;20460;-71
2022/03/27 09:39:06;;;;;;;6.70;6.00;;;29.10;41.40;;;;;;5034222;28;20408;-71
2022/03/27 09:41:58;;;;;;;7.97;7.17;;;29.00;42.30;;;;;;5021963;28;20418;-71
2022/03/27 09:44:36;;;;;;;7.50;6.80;;;28.40;42.00;;;;;;5014308;28;20423;-70
2022/03/27 09:47:10;;;;;;;8.00;6.90;;;28.30;42.40;;;;;;5014661;28;20446;-70
2022/03/27 09:49:37;;;;;;;9.60;8.57;;;28.70;43.00;;;;;;5013993;28;20716;-71
2022/03/27 09:52:08;;;;;;;9.27;7.70;;;28.70;42.10;;;;;;5014616;28;20506;-71
2022/03/27 09:54:56;;;;;;;9.90;8.90;;;28.40;43.00;;;;;;5014822;28;20484;-72
2022/03/27 09:57:29;;;;;;;9.67;7.37;;;28.20;43.30;;;;;;5015489;28;20408;-70
2022/03/27 10:00:18;;;;;;;8.07;6.87;;;27.80;43.30;;;;;;5015507;28;20449;-71
2022/03/27 10:02:51;;;;;;;8.57;7.47;;;27.90;43.40;;;;;;5015634;28;20507;-72
2022/03/27 10:05:17;;;;;;;9.30;7.30;;;28.40;43.20;;;;;;5031721;28;20447;-70
2022/03/27 10:07:52;;;;;;;7.60;6.90;;;28.80;43.60;;;;;;5034736;28;20811;-70
2022/03/27 10:10:24;;;;;;;9.83;8.47;;;29.00;42.80;;;;;;5034825;28;20403;-69
2022/03/27 10:12:52;;;;;;;8.87;7.67;;;28.70;43.20;;;;;;5033971;28;20462;-71
2022/03/27 10:15:22;;;;;;;8.03;7.23;;;28.30;43.40;;;;;;5033534;28;20436;-70
2022/03/27 10:18:03;;;;;;;8.37;7.57;;;27.60;44.10;;;;;;5033812;28;20412;-70
2022/03/27 10:20:33;;;;;;;8.13;6.83;;;27.60;44.90;;;;;;5014230;28;20425;-72
2022/03/27 10:23:08;;;;;;;8.97;7.60;;;27.60;44.90;;;;;;5014501;28;20410;-71
2022/03/27 10:25:40;;;;;;;11.00;8.23;;;27.60;45.10;;;;;;5013792;28;20415;-71
2022/03/27 10:28:07;;;;;;;7.47;6.77;;;27.80;44.30;;;;;;5013828;28;20421;-72
2022/03/27 10:30:33;;;;;;;8.30;6.60;;;28.20;44.00;;;;;;5012415;28;20380;-71
2022/03/27 10:33:01;;;;;;;9.00;7.07;;;28.30;43.60;;;;;;5015996;28;20396;-70
2022/03/27 10:35:50;;;;;;;8.00;7.20;;;28.30;43.60;;;;;;5032859;28;20823;-68
2022/03/27 10:38:37;;;;;;;8.97;7.17;;;28.40;43.20;;;;;;5031771;28;20417;-69
2022/03/27 10:41:21;;;;;;;9.13;5.93;;;28.50;43.40;;;;;;5033293;28;20387;-69
2022/03/27 10:44:07;;;;;;;8.30;7.23;;;28.40;43.30;;;;;;5032653;28;20408;-70
2022/03/27 10:46:34;;;;;;;9.37;7.07;;;28.00;43.00;;;;;;5033003;28;20460;-69
2022/03/27 10:49:14;;;;;;;6.97;6.33;;;27.90;43.10;;;;;;5020200;28;20424;-69
2022/03/27 10:51:42;;;;;;;9.40;6.67;;;27.50;43.40;;;;;;5013672;28;20833;-69
2022/03/27 10:54:09;;;;;;;8.10;7.17;;;27.50;44.00;;;;;;5013150;28;20416;-70
2022/03/27 10:56:43;;;;;;;8.40;6.23;;;27.30;44.50;;;;;;5013290;28;20483;-70
2022/03/27 10:59:17;;;;;;;9.43;6.50;;;27.20;44.50;;;;;;5013386;28;20891;-68
2022/03/27 11:01:48;;;;;;;7.93;6.43;;;27.20;43.30;;;;;;5016666;28;20384;-70
2022/03/27 11:04:19;;;;;;;7.60;5.87;;;27.20;42.70;;;;;;5035259;28;20895;-69
2022/03/27 11:06:50;;;;;;;5.77;5.10;;;27.20;42.10;;;;;;5036995;28;20430;-69
2022/03/27 11:09:35;;;;;;;9.13;6.83;;;27.00;42.20;;;;;;5037310;28;20367;-70
2022/03/27 11:12:04;;;;;;;8.80;6.43;;;26.80;42.90;;;;;;5037016;28;20458;-68
2022/03/27 11:14:51;;;;;;;7.90;6.00;;;26.60;42.80;;;;;;5036470;28;20932;-69
2022/03/27 11:17:33;;;;;;;6.77;5.37;;;26.20;43.70;;;;;;5031816;28;20404;-70
2022/03/27 11:19:59;;;;;;;8.53;5.70;;;25.30;43.80;;;;;;5017130;28;20401;-71
2022/03/27 11:22:43;;;;;;;10.10;6.23;;;24.10;45.10;;;;;;5017408;28;20380;-70
2022/03/27 11:25:33;;;;;;;9.07;5.93;;;23.30;45.00;;;;;;5016645;28;20451;-70
2022/03/27 11:28:18;;;;;;;7.73;6.37;;;22.60;45.60;;;;;;5017072;28;20483;-69
2022/03/27 11:30:50;;;;;;;10.93;5.80;;;22.00;46.70;;;;;;5017075;28;20380;-68
2022/03/27 11:33:20;;;;;;;8.27;5.20;;;21.60;46.70;;;;;;5017476;28;20425;-69
2022/03/27 11:36:12;;;;;;;5.60;4.47;;;21.40;46.10;;;;;;5036487;28;20440;-68
2022/03/27 11:38:54;;;;;;;5.87;4.70;;;21.20;45.50;;;;;;5036857;28;20401;-69
2022/03/27 11:41:42;;;;;;;6.07;4.60;;;21.00;46.10;;;;;;5036648;28;20400;-69
2022/03/27 11:44:17;;;;;;;6.77;5.90;;;20.70;46.30;;;;;;5036370;28;20487;-69
2022/03/27 11:46:56;;;;;;;10.00;4.67;;;20.50;46.20;;;;;;5029351;28;20464;-69
2022/03/27 11:49:35;;;;;;;6.20;4.93;;;20.30;46.10;;;;;;5017065;28;20837;-69
2022/03/27 11:52:11;;;;;;;5.07;4.00;;;20.20;47.30;;;;;;5016917;28;20437;-69
2022/03/27 11:54:37;;;;;;;8.37;5.53;;;20.10;47.40;;;;;;5016019;28;20462;-69
2022/03/27 11:57:04;;;;;;;7.07;4.47;;;20.10;47.50;;;;;;5016532;28;20408;-70
2022/03/27 11:59:31;;;;;;;8.60;5.13;;;20.10;45.70;;;;;;5016631;28;20955;-70
2022/03/27 12:02:00;;;;;;;7.87;4.33;;;20.10;46.30;;;;;;5027458;28;20421;-69
2022/03/27 12:04:26;;;;;;;4.93;3.77;;;20.00;46.00;;;;;;5035564;28;20440;-69
2022/03/27 12:06:55;;;;;;;6.40;4.73;;;20.00;47.60;;;;;;5036264;28;20453;-70
2022/03/27 12:09:30;;;;;;;8.30;5.70;;;20.00;46.90;;;;;;5036164;28;20419;-70
2022/03/27 12:12:10;;;;;;;10.37;7.73;;;20.00;46.60;;;;;;5035570;28;20419;-70
2022/03/27 12:14:55;;;;;;;6.50;4.27;;;20.00;45.70;;;;;;5035571;28;20464;-68
2022/03/27 12:17:22;;;;;;;5.50;4.57;;;20.10;45.70;;;;;;5018927;28;20418;-69
2022/03/27 12:20:08;;;;;;;5.07;4.47;;;20.10;45.30;;;;;;5016430;28;20461;-69
2022/03/27 12:22:35;;;;;;;6.40;4.90;;;20.10;45.80;;;;;;5016207;28;20433;-68
2022/03/27 12:25:03;;;;;;;4.27;3.87;;;20.00;46.60;;;;;;5014470;28;20473;-68
2022/03/27 12:30:13;;;;;;;7.17;5.00;;;20.10;46.50;;;;;;5035850;28;20398;-69
2022/03/27 12:32:38;;;;;;;5.87;4.20;;;20.10;46.10;;;;;;5035728;28;20401;-69
2022/03/27 12:35:06;;;;;;;6.53;4.70;;;20.20;45.60;;;;;;5035195;28;20194;-69
2022/03/27 12:37:33;;;;;;;9.00;4.70;;;20.30;45.20;;;;;;5035645;28;20246;-69
2022/03/27 12:40:09;;;;;;;16.60;5.73;;;20.30;45.50;;;;;;5033859;28;20496;-70
2022/03/27 12:42:39;;;;;;;7.07;4.70;;;20.30;45.20;;;;;;5015691;28;20380;-69
2022/03/27 12:45:17;;;;;;;5.77;4.60;;;20.20;44.70;;;;;;5015302;28;20416;-69
2022/03/27 12:47:48;;;;;;;6.50;4.23;;;20.10;45.30;;;;;;5015607;28;20457;-70
2022/03/27 12:50:35;;;;;;;7.57;5.20;;;20.10;44.20;;;;;;5028283;28;20413;-70
2022/03/27 12:53:07;;;;;;;5.00;3.27;;;20.10;43.70;;;;;;5035356;28;20906;-70
2022/03/27 12:56:02;;;;;;;15.83;4.53;;;20.10;44.10;;;;;;5035531;28;20393;-69
2022/03/27 12:58:38;;;;;;;5.57;4.20;;;20.10;44.10;;;;;;5035166;28;20409;-69
2022/03/27 13:01:11;;;;;;;4.97;4.47;;;20.10;44.60;;;;;;5035141;28;20396;-69
2022/03/27 13:03:38;;;;;;;5.53;4.30;;;20.00;45.50;;;;;;5031084;28;20976;-69
2022/03/27 13:06:06;;;;;;;5.90;5.00;;;20.00;45.30;;;;;;5015170;28;20420;-69
2022/03/27 13:08:40;;;;;;;5.07;4.03;;;20.10;45.60;;;;;;5015322;28;20410;-70